Webcam

2020/01/22 18:50 EBBR 221850Z 04002KT 2800 BR -DZ SCT004 BKN019 03/02 Q1036 BECMG 1200 BR BKN004 TEMPO 0800 FG

Webcam

--- Refresh now ---